createdAt,value
2023-07-08T00:01:15.081Z,3.13
2023-07-08T00:03:43.046Z,4.87
2023-07-08T00:06:21.260Z,6.03
2023-07-08T00:08:48.597Z,6.60
2023-07-08T00:11:17.041Z,4.55
2023-07-08T00:13:44.144Z,4.83
2023-07-08T00:16:13.549Z,4.80
2023-07-08T00:18:40.905Z,2.87
2023-07-08T00:21:16.886Z,3.65
2023-07-08T00:23:51.195Z,4.50
2023-07-08T00:26:30.677Z,4.63
2023-07-08T00:28:58.161Z,3.17
2023-07-08T00:31:26.937Z,5.47
2023-07-08T00:33:58.924Z,4.20
2023-07-08T00:36:28.476Z,3.67
2023-07-08T00:38:55.984Z,4.53
2023-07-08T00:41:28.728Z,4.78
2023-07-08T00:43:57.208Z,4.82
2023-07-08T00:46:33.622Z,5.65
2023-07-08T00:49:10.052Z,3.65
2023-07-08T00:51:40.091Z,6.83
2023-07-08T00:54:11.754Z,3.72
2023-07-08T00:56:48.375Z,3.70
2023-07-08T00:59:19.767Z,4.03
2023-07-08T01:01:47.754Z,4.18
2023-07-08T01:04:23.710Z,4.30
2023-07-08T01:06:58.407Z,4.25
2023-07-08T01:09:30.036Z,5.03
2023-07-08T01:12:02.613Z,3.42
2023-07-08T01:14:33.798Z,3.72
2023-07-08T01:17:01.307Z,3.73
2023-07-08T01:19:35.537Z,3.80
2023-07-08T01:22:06.872Z,4.53
2023-07-08T01:24:37.796Z,4.62
2023-07-08T01:27:07.985Z,6.40
2023-07-08T01:29:35.609Z,5.00
2023-07-08T01:32:06.784Z,3.72
2023-07-08T01:34:35.401Z,3.70
2023-07-08T01:37:05.444Z,5.62
2023-07-08T01:39:33.966Z,4.10
2023-07-08T01:42:01.861Z,3.47
2023-07-08T01:44:37.190Z,6.32
2023-07-08T01:47:07.348Z,5.53
2023-07-08T01:49:37.351Z,4.32
2023-07-08T01:52:05.064Z,4.87
2023-07-08T01:54:32.314Z,3.67
2023-07-08T01:56:59.831Z,4.10
2023-07-08T01:59:26.973Z,4.30
2023-07-08T02:01:56.570Z,3.37
2023-07-08T02:04:25.734Z,5.40
2023-07-08T02:06:57.926Z,3.67
2023-07-08T02:09:26.222Z,3.97
2023-07-08T02:11:54.625Z,6.40
2023-07-08T02:14:22.093Z,3.53
2023-07-08T02:16:49.176Z,4.72
2023-07-08T02:19:16.375Z,5.37
2023-07-08T02:21:44.251Z,3.20
2023-07-08T02:24:11.584Z,2.83
2023-07-08T02:26:38.643Z,5.47
2023-07-08T02:29:06.031Z,3.42
2023-07-08T02:31:33.047Z,3.67
2023-07-08T02:34:01.268Z,5.70
2023-07-08T02:36:28.303Z,3.47
2023-07-08T02:38:55.225Z,4.20
2023-07-08T02:41:22.370Z,3.55
2023-07-08T02:43:49.401Z,3.60
2023-07-08T02:46:16.432Z,4.05
2023-07-08T02:48:43.542Z,3.97
2023-07-08T02:51:11.105Z,4.32
2023-07-08T02:53:38.252Z,5.32
2023-07-08T02:56:05.201Z,6.57
2023-07-08T02:58:33.191Z,4.50
2023-07-08T03:01:02.423Z,5.70
2023-07-08T03:03:30.481Z,3.87
2023-07-08T03:06:00.215Z,5.93
2023-07-08T03:08:28.016Z,5.63
2023-07-08T03:11:02.366Z,3.55
2023-07-08T03:13:30.958Z,3.97
2023-07-08T03:16:00.408Z,3.25
2023-07-08T03:18:28.241Z,5.07
2023-07-08T03:20:57.549Z,4.30
2023-07-08T03:23:25.958Z,3.08
2023-07-08T03:25:53.563Z,5.28
2023-07-08T03:28:20.816Z,3.08
2023-07-08T03:30:53.950Z,3.45
2023-07-08T03:33:21.482Z,4.87
2023-07-08T03:35:49.324Z,4.90
2023-07-08T03:38:16.990Z,3.30
2023-07-08T03:40:45.481Z,4.60
2023-07-08T03:43:12.664Z,3.53
2023-07-08T03:45:39.784Z,3.87
2023-07-08T03:48:07.279Z,4.60
2023-07-08T03:50:34.376Z,4.68
2023-07-08T03:53:01.419Z,2.85
2023-07-08T03:55:29.606Z,5.22
2023-07-08T03:57:56.513Z,4.23
2023-07-08T04:00:23.839Z,3.53
2023-07-08T04:02:50.886Z,3.35
2023-07-08T04:05:20.946Z,3.42
2023-07-08T04:07:48.926Z,4.70
2023-07-08T04:10:18.056Z,3.73
2023-07-08T04:12:45.452Z,4.68
2023-07-08T04:15:13.402Z,3.53
2023-07-08T04:17:50.126Z,3.72
2023-07-08T04:20:19.853Z,3.58
2023-07-08T04:22:47.638Z,3.07
2023-07-08T04:25:15.683Z,4.87
2023-07-08T04:27:43.188Z,2.35
2023-07-08T04:30:21.251Z,4.80
2023-07-08T04:32:48.542Z,3.83
2023-07-08T04:35:15.830Z,3.57
2023-07-08T04:37:42.911Z,3.70
2023-07-08T04:40:22.415Z,7.00
2023-07-08T04:42:50.384Z,3.83
2023-07-08T04:45:18.632Z,3.65
2023-07-08T04:47:48.215Z,3.80
2023-07-08T04:50:15.232Z,3.08
2023-07-08T04:52:42.255Z,2.95
2023-07-08T04:55:10.749Z,4.15
2023-07-08T04:57:37.757Z,7.43
2023-07-08T05:00:09.499Z,3.47
2023-07-08T05:02:36.546Z,2.40
2023-07-08T05:05:04.541Z,4.60
2023-07-08T05:07:31.546Z,2.22
2023-07-08T05:09:59.269Z,5.43
2023-07-08T05:12:27.800Z,2.23
2023-07-08T05:14:54.887Z,3.15
2023-07-08T05:17:21.844Z,2.70
2023-07-08T05:19:52.186Z,2.62
2023-07-08T05:22:20.176Z,3.20
2023-07-08T05:24:48.230Z,3.10
2023-07-08T05:27:16.290Z,3.08
2023-07-08T05:29:44.378Z,2.90
2023-07-08T05:32:11.504Z,2.83
2023-07-08T05:34:38.514Z,3.05
2023-07-08T05:37:06.012Z,4.17
2023-07-08T05:39:32.982Z,3.28
2023-07-08T05:42:00.142Z,3.47
2023-07-08T05:44:27.200Z,3.45
2023-07-08T05:46:54.206Z,3.85
2023-07-08T05:49:21.512Z,3.00
2023-07-08T05:51:48.713Z,3.95
2023-07-08T05:54:16.042Z,2.80
2023-07-08T05:56:42.965Z,3.78
2023-07-08T05:59:09.926Z,3.12
2023-07-08T06:01:36.997Z,2.37
2023-07-08T06:04:04.077Z,3.67
2023-07-08T06:06:31.476Z,2.15
2023-07-08T06:08:58.600Z,2.60
2023-07-08T06:11:25.579Z,3.45
2023-07-08T06:13:52.699Z,3.00
2023-07-08T06:16:31.299Z,3.55
2023-07-08T06:19:06.898Z,5.57
2023-07-08T06:21:34.160Z,4.32
2023-07-08T06:24:01.359Z,3.33
2023-07-08T06:26:28.471Z,3.40
2023-07-08T06:28:55.580Z,3.60
2023-07-08T06:31:22.572Z,4.87
2023-07-08T06:33:49.538Z,2.75
2023-07-08T06:36:16.549Z,3.92
2023-07-08T06:38:43.762Z,3.17
2023-07-08T06:41:10.620Z,2.55
2023-07-08T06:43:37.793Z,2.95
2023-07-08T06:46:04.832Z,2.33
2023-07-08T06:48:32.503Z,2.80
2023-07-08T06:51:00.301Z,2.10
2023-07-08T06:53:27.417Z,3.40
2023-07-08T06:55:54.443Z,2.92
2023-07-08T06:58:21.602Z,3.85
2023-07-08T07:00:48.520Z,4.03
2023-07-08T07:03:15.545Z,3.40
2023-07-08T07:05:44.100Z,4.12
2023-07-08T07:08:11.130Z,4.47
2023-07-08T07:10:38.785Z,3.37
2023-07-08T07:13:05.695Z,3.05
2023-07-08T07:15:33.582Z,2.77
2023-07-08T07:18:00.962Z,3.35
2023-07-08T07:20:28.242Z,2.97
2023-07-08T07:22:55.296Z,4.03
2023-07-08T07:25:22.641Z,3.92
2023-07-08T07:27:49.653Z,4.93
2023-07-08T07:30:16.767Z,3.55
2023-07-08T07:32:44.293Z,2.40
2023-07-08T07:35:16.340Z,2.22
2023-07-08T07:37:44.173Z,3.00
2023-07-08T07:40:13.993Z,3.47
2023-07-08T07:42:42.233Z,2.62
2023-07-08T07:45:10.127Z,1.90
2023-07-08T07:47:37.667Z,2.28
2023-07-08T07:50:06.638Z,10.90
2023-07-08T07:52:33.977Z,2.73
2023-07-08T07:55:01.023Z,2.03
2023-07-08T07:57:27.955Z,3.40
2023-07-08T07:59:54.913Z,3.05
2023-07-08T08:02:21.962Z,3.97
2023-07-08T08:04:48.924Z,2.90
2023-07-08T08:07:15.916Z,6.75
2023-07-08T08:09:42.970Z,3.65
2023-07-08T08:12:12.251Z,4.43
2023-07-08T08:14:40.388Z,2.35
2023-07-08T08:17:07.821Z,3.47
2023-07-08T08:19:34.919Z,2.78
2023-07-08T08:22:02.076Z,5.12
2023-07-08T08:24:28.933Z,2.37
2023-07-08T08:26:56.186Z,3.33
2023-07-08T08:29:23.252Z,3.77
2023-07-08T08:31:51.819Z,4.57
2023-07-08T08:34:19.096Z,2.95
2023-07-08T08:36:46.080Z,4.87
2023-07-08T08:39:13.334Z,4.15
2023-07-08T08:41:44.046Z,2.70
2023-07-08T08:44:18.317Z,3.87
2023-07-08T08:47:10.738Z,5.75
2023-07-08T08:49:47.902Z,2.78
2023-07-08T08:52:15.989Z,1.87
2023-07-08T08:54:44.799Z,3.43
2023-07-08T08:57:20.930Z,5.25
2023-07-08T08:59:55.235Z,3.65
2023-07-08T09:02:41.074Z,3.20
2023-07-08T09:05:12.904Z,3.15
2023-07-08T09:08:01.690Z,2.70
2023-07-08T09:10:43.702Z,3.47
2023-07-08T09:13:20.742Z,6.62
2023-07-08T09:15:49.573Z,3.15
2023-07-08T09:18:26.686Z,5.25
2023-07-08T09:20:56.907Z,4.47
2023-07-08T09:23:31.060Z,3.30
2023-07-08T09:26:04.084Z,6.97
2023-07-08T09:28:43.006Z,2.22
2023-07-08T09:31:38.157Z,4.90
2023-07-08T09:34:21.595Z,3.40
2023-07-08T09:36:50.411Z,2.60
2023-07-08T09:39:19.565Z,2.40
2023-07-08T09:41:48.621Z,2.95
2023-07-08T09:44:30.178Z,3.25
2023-07-08T09:46:59.754Z,3.63
2023-07-08T09:49:36.276Z,3.70
2023-07-08T09:52:05.626Z,3.45
2023-07-08T09:54:33.945Z,2.45
2023-07-08T09:57:12.967Z,2.78
2023-07-08T09:59:48.252Z,4.40
2023-07-08T10:02:27.040Z,3.83
2023-07-08T10:04:56.632Z,2.50
2023-07-08T10:07:24.432Z,3.12
2023-07-08T10:09:55.667Z,2.45
2023-07-08T10:12:24.932Z,3.83
2023-07-08T10:14:57.590Z,2.75
2023-07-08T10:17:24.641Z,3.80
2023-07-08T10:19:51.633Z,2.83
2023-07-08T10:22:36.089Z,2.95
2023-07-08T10:25:32.258Z,2.20
2023-07-08T10:28:19.189Z,4.07
2023-07-08T10:31:04.246Z,6.35
2023-07-08T10:33:57.282Z,2.37
2023-07-08T10:36:54.516Z,4.62
2023-07-08T10:39:30.385Z,3.07
2023-07-08T10:42:20.151Z,3.45
2023-07-08T10:45:10.920Z,3.40
2023-07-08T10:47:58.926Z,3.00
2023-07-08T10:50:52.337Z,3.58
2023-07-08T10:53:51.949Z,3.67
2023-07-08T10:56:45.343Z,3.45
2023-07-08T10:59:33.480Z,5.20
2023-07-08T11:02:52.860Z,3.03
2023-07-08T11:05:42.576Z,3.70
2023-07-08T11:08:27.397Z,3.13
2023-07-08T11:11:15.288Z,3.60
2023-07-08T11:13:54.705Z,4.60
2023-07-08T11:16:33.947Z,2.15
2023-07-08T11:19:11.750Z,2.42
2023-07-08T11:21:52.183Z,2.60
2023-07-08T11:24:36.560Z,2.47
2023-07-08T11:27:28.917Z,2.78
2023-07-08T11:30:00.156Z,2.62
2023-07-08T11:32:31.073Z,2.95
2023-07-08T11:35:00.728Z,2.23
2023-07-08T11:37:29.345Z,2.22
2023-07-08T11:40:10.246Z,4.43
2023-07-08T11:42:58.766Z,3.50
2023-07-08T11:45:34.426Z,3.87
2023-07-08T11:48:39.303Z,5.90
2023-07-08T11:51:06.954Z,2.08
2023-07-08T11:53:47.361Z,3.08
2023-07-08T11:56:16.863Z,3.15
2023-07-08T11:59:10.666Z,4.82
2023-07-08T12:01:48.156Z,3.07
2023-07-08T12:04:24.346Z,3.20
2023-07-08T12:07:16.528Z,4.47
2023-07-08T12:09:58.622Z,2.85
2023-07-08T12:12:30.770Z,3.75
2023-07-08T12:15:16.376Z,6.03
2023-07-08T12:17:43.552Z,2.50
2023-07-08T12:20:28.576Z,2.58
2023-07-08T12:22:55.632Z,2.40
2023-07-08T12:25:25.838Z,4.25
2023-07-08T12:27:52.920Z,2.47
2023-07-08T12:30:20.047Z,2.17
2023-07-08T12:32:47.692Z,4.25
2023-07-08T12:35:20.469Z,2.85
2023-07-08T12:37:47.539Z,3.83
2023-07-08T12:40:15.190Z,2.40
2023-07-08T12:42:42.069Z,4.53
2023-07-08T12:45:17.185Z,2.75
2023-07-08T12:47:45.415Z,3.90
2023-07-08T12:50:13.561Z,2.55
2023-07-08T12:52:41.938Z,3.00
2023-07-08T12:55:11.710Z,3.47
2023-07-08T12:57:42.536Z,4.35
2023-07-08T13:00:28.672Z,3.35
2023-07-08T13:03:15.070Z,2.60
2023-07-08T13:05:43.360Z,2.30
2023-07-08T13:08:19.801Z,4.68
2023-07-08T13:10:47.957Z,10.95
2023-07-08T13:13:50.197Z,8.18
2023-07-08T13:16:17.864Z,3.37
2023-07-08T13:18:45.156Z,3.97
2023-07-08T13:21:15.376Z,6.37
2023-07-08T13:23:43.840Z,2.50
2023-07-08T13:26:16.827Z,3.60
2023-07-08T13:28:46.451Z,3.28
2023-07-08T13:31:25.416Z,2.97
2023-07-08T13:33:55.065Z,2.60
2023-07-08T13:36:37.734Z,5.93
2023-07-08T13:39:09.566Z,4.40
2023-07-08T13:41:37.638Z,4.07
2023-07-08T13:44:09.722Z,4.00
2023-07-08T13:46:59.009Z,2.65
2023-07-08T13:49:41.056Z,4.18
2023-07-08T13:52:13.917Z,3.17
2023-07-08T13:54:51.453Z,2.58
2023-07-08T13:57:20.914Z,4.90
2023-07-08T13:59:47.921Z,3.28
2023-07-08T14:02:19.136Z,3.08
2023-07-08T14:04:46.659Z,3.97
2023-07-08T14:07:18.425Z,3.12
2023-07-08T14:09:45.720Z,3.23
2023-07-08T14:12:13.305Z,4.60
2023-07-08T14:14:43.014Z,2.90
2023-07-08T14:17:13.347Z,2.80
2023-07-08T14:19:40.401Z,3.22
2023-07-08T14:22:31.009Z,3.07
2023-07-08T14:25:05.741Z,3.10
2023-07-08T14:27:32.747Z,2.85
2023-07-08T14:29:59.637Z,5.55
2023-07-08T14:32:31.578Z,6.32
2023-07-08T14:35:16.483Z,3.60
2023-07-08T14:37:43.927Z,4.18
2023-07-08T14:40:47.092Z,3.25
2023-07-08T14:43:19.126Z,3.40
2023-07-08T14:45:54.055Z,2.58
2023-07-08T14:48:21.350Z,5.37
2023-07-08T14:50:48.944Z,5.00
2023-07-08T14:53:17.476Z,2.40
2023-07-08T14:55:47.318Z,2.45
2023-07-08T14:58:19.176Z,2.67
2023-07-08T15:00:46.158Z,2.30
2023-07-08T15:03:13.101Z,5.43
2023-07-08T15:05:40.269Z,4.25
2023-07-08T15:08:07.468Z,2.40
2023-07-08T15:10:36.007Z,2.62
2023-07-08T15:13:04.482Z,2.83
2023-07-08T15:15:40.845Z,2.83
2023-07-08T15:18:14.106Z,5.55
2023-07-08T15:20:42.281Z,2.92
2023-07-08T15:23:11.136Z,2.30
2023-07-08T15:25:39.127Z,2.37
2023-07-08T15:28:06.536Z,3.40
2023-07-08T15:30:33.564Z,3.05
2023-07-08T15:33:00.628Z,1.90
2023-07-08T15:35:35.002Z,2.30
2023-07-08T15:38:05.257Z,3.83
2023-07-08T15:40:36.071Z,2.83
2023-07-08T15:43:04.574Z,2.28
2023-07-08T15:45:38.566Z,2.55
2023-07-08T15:48:06.355Z,2.03
2023-07-08T15:50:33.410Z,2.87
2023-07-08T15:53:00.739Z,2.33
2023-07-08T15:55:34.914Z,2.50
2023-07-08T15:58:05.950Z,4.72
2023-07-08T16:00:37.131Z,2.28
2023-07-08T16:03:25.920Z,2.83
2023-07-08T16:05:54.313Z,1.80
2023-07-08T16:08:23.321Z,2.97
2023-07-08T16:10:56.193Z,3.25
2023-07-08T16:13:27.504Z,3.03
2023-07-08T16:15:55.490Z,2.07
2023-07-08T16:18:23.538Z,2.62
2023-07-08T16:20:50.839Z,3.58
2023-07-08T16:23:18.232Z,1.95
2023-07-08T16:25:49.333Z,3.05
2023-07-08T16:28:41.950Z,3.40
2023-07-08T16:31:23.582Z,1.75
2023-07-08T16:33:50.779Z,2.50
2023-07-08T16:36:21.108Z,2.35
2023-07-08T16:38:49.138Z,2.42
2023-07-08T16:41:18.293Z,2.10
2023-07-08T16:43:45.307Z,2.10
2023-07-08T16:46:15.051Z,2.83
2023-07-08T16:48:44.374Z,3.30
2023-07-08T16:51:23.513Z,3.62
2023-07-08T16:53:50.605Z,2.00
2023-07-08T16:56:22.216Z,3.10
2023-07-08T16:58:49.189Z,3.78
2023-07-08T17:01:21.578Z,1.95
2023-07-08T17:03:51.104Z,3.58
2023-07-08T17:06:18.201Z,3.27
2023-07-08T17:08:45.698Z,2.62
2023-07-08T17:11:18.031Z,3.12
2023-07-08T17:13:46.090Z,2.40
2023-07-08T17:16:17.800Z,2.35
2023-07-08T17:18:47.117Z,2.53
2023-07-08T17:21:15.763Z,4.20
2023-07-08T17:23:43.519Z,3.47
2023-07-08T17:26:10.473Z,3.75
2023-07-08T17:28:37.367Z,2.60
2023-07-08T17:31:05.926Z,2.23
2023-07-08T17:33:33.319Z,3.30
2023-07-08T17:36:01.159Z,2.95
2023-07-08T17:38:40.403Z,6.05
2023-07-08T17:41:11.590Z,3.35
2023-07-08T17:43:40.411Z,3.63
2023-07-08T17:46:12.842Z,5.53
2023-07-08T17:48:40.730Z,6.95
2023-07-08T17:51:09.648Z,5.50
2023-07-08T17:53:36.649Z,3.10
2023-07-08T17:56:04.133Z,4.40
2023-07-08T17:58:34.847Z,4.37
2023-07-08T18:01:01.835Z,3.08
2023-07-08T18:03:28.869Z,2.67
2023-07-08T18:05:56.071Z,4.60
2023-07-08T18:08:23.232Z,5.90
2023-07-08T18:10:50.244Z,3.65
2023-07-08T18:13:23.616Z,4.62
2023-07-08T18:15:50.640Z,2.90
2023-07-08T18:18:17.734Z,3.33
2023-07-08T18:20:51.518Z,6.70
2023-07-08T18:23:21.712Z,3.85
2023-07-08T18:25:49.174Z,4.47
2023-07-08T18:28:16.772Z,7.37
2023-07-08T18:30:45.004Z,4.15
2023-07-08T18:33:17.633Z,4.87
2023-07-08T18:35:47.002Z,3.80
2023-07-08T18:38:14.505Z,6.37
2023-07-08T18:40:43.730Z,4.80
2023-07-08T18:43:21.483Z,8.13
2023-07-08T18:45:49.665Z,5.53
2023-07-08T18:48:18.893Z,7.10
2023-07-08T18:50:53.349Z,6.45
2023-07-08T18:53:21.064Z,8.18
2023-07-08T18:55:48.918Z,8.63
2023-07-08T18:58:20.230Z,6.47
2023-07-08T19:00:48.664Z,12.88
2023-07-08T19:03:29.547Z,10.23
2023-07-08T19:05:56.988Z,8.27
2023-07-08T19:08:24.233Z,11.98
2023-07-08T19:10:56.567Z,10.63
2023-07-08T19:13:27.445Z,13.60
2023-07-08T19:15:55.649Z,11.60
2023-07-08T19:18:23.289Z,10.48
2023-07-08T19:20:52.106Z,10.02
2023-07-08T19:23:22.828Z,14.47
2023-07-08T19:25:49.938Z,12.55
2023-07-08T19:28:17.155Z,19.80
2023-07-08T19:30:51.460Z,16.05
2023-07-08T19:33:19.144Z,16.30
2023-07-08T19:35:47.682Z,11.60
2023-07-08T19:38:16.603Z,16.52
2023-07-08T19:40:51.555Z,13.25
2023-07-08T19:43:22.763Z,13.50
2023-07-08T19:45:49.858Z,20.30
2023-07-08T19:48:17.229Z,13.13
2023-07-08T19:50:44.267Z,11.55
2023-07-08T19:53:12.674Z,11.38
2023-07-08T19:55:41.104Z,14.60
2023-07-08T19:58:14.218Z,9.63
2023-07-08T20:00:52.545Z,11.53
2023-07-08T20:03:19.606Z,12.32
2023-07-08T20:05:46.689Z,12.68
2023-07-08T20:08:23.104Z,12.43
2023-07-08T20:10:55.133Z,12.48
2023-07-08T20:13:28.129Z,15.93
2023-07-08T20:15:55.164Z,18.00
2023-07-08T20:18:29.191Z,18.52
2023-07-08T20:21:00.244Z,16.02
2023-07-08T20:23:28.854Z,11.90
2023-07-08T20:25:56.909Z,17.57
2023-07-08T20:31:01.579Z,9.20
2023-07-08T20:33:28.688Z,12.45
2023-07-08T20:35:55.994Z,7.93
2023-07-08T20:38:22.996Z,8.23
2023-07-08T20:40:49.918Z,8.48
2023-07-08T20:43:20.443Z,10.48
2023-07-08T20:45:49.489Z,14.98
2023-07-08T20:48:23.709Z,6.97
2023-07-08T20:50:51.703Z,8.73
2023-07-08T20:53:19.819Z,11.80
2023-07-08T20:55:48.164Z,13.80
2023-07-08T20:58:20.900Z,16.10
2023-07-08T21:00:48.798Z,10.95
2023-07-08T21:03:20.327Z,8.90
2023-07-08T21:05:50.787Z,13.25
2023-07-08T21:08:17.795Z,13.60
2023-07-08T21:10:45.010Z,10.88
2023-07-08T21:13:11.939Z,11.25
2023-07-08T21:15:39.361Z,12.57
2023-07-08T21:18:14.556Z,12.35
2023-07-08T21:20:41.903Z,13.02
2023-07-08T21:23:14.585Z,10.93
2023-07-08T21:25:42.082Z,10.82
2023-07-08T21:28:21.224Z,15.93
2023-07-08T21:30:48.177Z,11.57
2023-07-08T21:33:15.182Z,13.00
2023-07-08T21:35:42.747Z,12.30
2023-07-08T21:38:13.086Z,13.62
2023-07-08T21:40:51.561Z,13.77
2023-07-08T21:43:20.947Z,14.30
2023-07-08T21:45:48.080Z,9.02
2023-07-08T21:48:16.906Z,11.20
2023-07-08T21:51:02.883Z,9.25
2023-07-08T21:53:36.683Z,8.80
2023-07-08T21:56:05.072Z,11.05
2023-07-08T21:58:32.418Z,12.65
2023-07-08T22:00:59.816Z,11.68
2023-07-08T22:03:28.739Z,13.82
2023-07-08T22:05:57.022Z,10.80
2023-07-08T22:08:26.300Z,16.90
2023-07-08T22:11:00.281Z,13.40
2023-07-08T22:13:30.509Z,15.02
2023-07-08T22:16:04.083Z,9.73
2023-07-08T22:18:31.412Z,11.77
2023-07-08T22:21:01.924Z,10.23
2023-07-08T22:23:30.871Z,7.43
2023-07-08T22:25:58.841Z,11.27
2023-07-08T22:28:27.067Z,5.85
2023-07-08T22:30:54.155Z,9.93
2023-07-08T22:33:24.816Z,10.77
2023-07-08T22:35:53.491Z,15.27
2023-07-08T22:38:20.648Z,10.40
2023-07-08T22:40:49.218Z,8.93
2023-07-08T22:43:30.520Z,9.47
2023-07-08T22:45:58.216Z,9.40
2023-07-08T22:48:26.722Z,11.88
2023-07-08T22:51:05.496Z,9.85
2023-07-08T22:53:35.509Z,6.62
2023-07-08T22:56:03.264Z,10.90
2023-07-08T22:58:33.449Z,5.25
2023-07-08T23:01:01.475Z,5.55
2023-07-08T23:03:28.599Z,6.82
2023-07-08T23:05:59.361Z,7.65
2023-07-08T23:08:32.716Z,6.10
2023-07-08T23:11:00.703Z,5.75
2023-07-08T23:13:40.454Z,8.85
2023-07-08T23:16:16.653Z,5.75
2023-07-08T23:18:47.384Z,8.20
2023-07-08T23:21:17.085Z,5.37
2023-07-08T23:23:44.410Z,4.43
2023-07-08T23:26:22.373Z,6.87
2023-07-08T23:28:53.100Z,7.30
2023-07-08T23:31:20.311Z,4.40
2023-07-08T23:33:47.925Z,4.70
2023-07-08T23:36:34.949Z,4.43
2023-07-08T23:39:04.870Z,4.62
2023-07-08T23:41:33.347Z,6.55
2023-07-08T23:44:00.556Z,6.85
2023-07-08T23:46:31.074Z,6.10
2023-07-08T23:48:59.613Z,8.57
2023-07-08T23:51:27.355Z,6.05
2023-07-08T23:53:54.446Z,5.37
2023-07-08T23:56:33.001Z,7.12
2023-07-08T23:59:02.440Z,6.10
